sensor_id;sensor_type;location;lat;lon;timestamp;P1;durP1;ratioP1;P2;durP2;ratioP2
20699;SDS011;10511;51.232;9.420;2023-05-18T00:01:06;1.00;;;1.00;;
20699;SDS011;10511;51.232;9.420;2023-05-18T00:03:35;1.10;;;1.10;;
20699;SDS011;10511;51.232;9.420;2023-05-18T00:06:03;1.10;;;1.10;;
20699;SDS011;10511;51.232;9.420;2023-05-18T00:08:31;1.10;;;1.10;;
20699;SDS011;10511;51.232;9.420;2023-05-18T00:10:58;1.10;;;1.10;;
20699;SDS011;10511;51.232;9.420;2023-05-18T00:13:25;1.20;;;1.20;;
20699;SDS011;10511;51.232;9.420;2023-05-18T00:15:51;1.10;;;1.10;;
20699;SDS011;10511;51.232;9.420;2023-05-18T00:18:18;1.03;;;1.03;;
20699;SDS011;10511;51.232;9.420;2023-05-18T00:20:49;1.10;;;1.10;;
20699;SDS011;10511;51.232;9.420;2023-05-18T00:23:22;1.00;;;1.00;;
20699;SDS011;10511;51.232;9.420;2023-05-18T00:25:50;1.20;;;1.20;;
20699;SDS011;10511;51.232;9.420;2023-05-18T00:28:17;1.10;;;1.10;;
20699;SDS011;10511;51.232;9.420;2023-05-18T00:30:43;1.10;;;1.10;;
20699;SDS011;10511;51.232;9.420;2023-05-18T00:33:10;1.00;;;1.00;;
20699;SDS011;10511;51.232;9.420;2023-05-18T00:35:37;1.03;;;1.03;;
20699;SDS011;10511;51.232;9.420;2023-05-18T00:38:05;1.03;;;1.03;;
20699;SDS011;10511;51.232;9.420;2023-05-18T00:40:32;1.20;;;1.20;;
20699;SDS011;10511;51.232;9.420;2023-05-18T00:42:59;1.10;;;1.10;;
20699;SDS011;10511;51.232;9.420;2023-05-18T00:45:26;1.10;;;1.10;;
20699;SDS011;10511;51.232;9.420;2023-05-18T00:47:53;1.10;;;1.10;;
20699;SDS011;10511;51.232;9.420;2023-05-18T00:50:20;1.10;;;1.10;;
20699;SDS011;10511;51.232;9.420;2023-05-18T00:52:47;1.03;;;1.03;;
20699;SDS011;10511;51.232;9.420;2023-05-18T00:55:16;1.10;;;1.10;;
20699;SDS011;10511;51.232;9.420;2023-05-18T00:57:43;1.10;;;1.10;;
20699;SDS011;10511;51.232;9.420;2023-05-18T01:00:12;1.23;;;1.23;;
20699;SDS011;10511;51.232;9.420;2023-05-18T01:02:40;1.10;;;1.10;;
20699;SDS011;10511;51.232;9.420;2023-05-18T01:05:09;1.10;;;1.10;;
20699;SDS011;10511;51.232;9.420;2023-05-18T01:07:37;1.10;;;1.10;;
20699;SDS011;10511;51.232;9.420;2023-05-18T01:10:06;1.20;;;1.20;;
20699;SDS011;10511;51.232;9.420;2023-05-18T01:12:36;1.10;;;1.10;;
20699;SDS011;10511;51.232;9.420;2023-05-18T01:15:07;1.13;;;1.13;;
20699;SDS011;10511;51.232;9.420;2023-05-18T01:17:38;1.10;;;1.10;;
20699;SDS011;10511;51.232;9.420;2023-05-18T01:20:14;1.10;;;1.10;;
20699;SDS011;10511;51.232;9.420;2023-05-18T01:25:45;1.20;;;1.20;;
20699;SDS011;10511;51.232;9.420;2023-05-18T01:28:15;1.20;;;1.20;;
20699;SDS011;10511;51.232;9.420;2023-05-18T01:30:45;1.10;;;1.10;;
20699;SDS011;10511;51.232;9.420;2023-05-18T01:33:12;1.37;;;1.37;;
20699;SDS011;10511;51.232;9.420;2023-05-18T01:35:39;1.10;;;1.10;;
20699;SDS011;10511;51.232;9.420;2023-05-18T01:38:11;1.20;;;1.20;;
20699;SDS011;10511;51.232;9.420;2023-05-18T01:40:40;1.20;;;1.20;;
20699;SDS011;10511;51.232;9.420;2023-05-18T01:43:16;1.30;;;1.30;;
20699;SDS011;10511;51.232;9.420;2023-05-18T01:45:46;1.20;;;1.20;;
20699;SDS011;10511;51.232;9.420;2023-05-18T01:48:17;1.20;;;1.20;;
20699;SDS011;10511;51.232;9.420;2023-05-18T01:50:49;1.20;;;1.20;;
20699;SDS011;10511;51.232;9.420;2023-05-18T01:53:22;1.20;;;1.20;;
20699;SDS011;10511;51.232;9.420;2023-05-18T01:55:51;1.20;;;1.20;;
20699;SDS011;10511;51.232;9.420;2023-05-18T01:58:21;1.10;;;1.10;;
20699;SDS011;10511;51.232;9.420;2023-05-18T02:00:49;1.20;;;1.20;;
20699;SDS011;10511;51.232;9.420;2023-05-18T02:03:16;1.20;;;1.20;;
20699;SDS011;10511;51.232;9.420;2023-05-18T02:05:43;1.30;;;1.30;;
20699;SDS011;10511;51.232;9.420;2023-05-18T02:08:10;1.20;;;1.20;;
20699;SDS011;10511;51.232;9.420;2023-05-18T02:10:36;1.20;;;1.20;;
20699;SDS011;10511;51.232;9.420;2023-05-18T02:13:03;1.20;;;1.20;;
20699;SDS011;10511;51.232;9.420;2023-05-18T02:15:31;1.20;;;1.20;;
20699;SDS011;10511;51.232;9.420;2023-05-18T02:17:58;1.30;;;1.30;;
20699;SDS011;10511;51.232;9.420;2023-05-18T02:20:26;1.20;;;1.20;;
20699;SDS011;10511;51.232;9.420;2023-05-18T02:22:56;1.20;;;1.20;;
20699;SDS011;10511;51.232;9.420;2023-05-18T02:25:24;1.13;;;1.13;;
20699;SDS011;10511;51.232;9.420;2023-05-18T02:27:50;1.20;;;1.20;;
20699;SDS011;10511;51.232;9.420;2023-05-18T02:30:17;1.10;;;1.10;;
20699;SDS011;10511;51.232;9.420;2023-05-18T02:32:46;1.20;;;1.20;;
20699;SDS011;10511;51.232;9.420;2023-05-18T02:35:13;1.20;;;1.20;;
20699;SDS011;10511;51.232;9.420;2023-05-18T02:37:41;1.30;;;1.30;;
20699;SDS011;10511;51.232;9.420;2023-05-18T02:40:09;1.30;;;1.30;;
20699;SDS011;10511;51.232;9.420;2023-05-18T02:42:36;1.20;;;1.20;;
20699;SDS011;10511;51.232;9.420;2023-05-18T02:45:04;1.27;;;1.27;;
20699;SDS011;10511;51.232;9.420;2023-05-18T02:47:32;1.20;;;1.20;;
20699;SDS011;10511;51.232;9.420;2023-05-18T02:50:00;1.10;;;1.10;;
20699;SDS011;10511;51.232;9.420;2023-05-18T02:52:27;1.20;;;1.20;;
20699;SDS011;10511;51.232;9.420;2023-05-18T02:54:55;1.20;;;1.20;;
20699;SDS011;10511;51.232;9.420;2023-05-18T02:57:22;1.30;;;1.30;;
20699;SDS011;10511;51.232;9.420;2023-05-18T02:59:48;1.23;;;1.23;;
20699;SDS011;10511;51.232;9.420;2023-05-18T03:02:15;1.20;;;1.20;;
20699;SDS011;10511;51.232;9.420;2023-05-18T03:04:42;1.20;;;1.20;;
20699;SDS011;10511;51.232;9.420;2023-05-18T03:07:12;1.20;;;1.20;;
20699;SDS011;10511;51.232;9.420;2023-05-18T03:09:39;1.30;;;1.30;;
20699;SDS011;10511;51.232;9.420;2023-05-18T03:12:06;1.30;;;1.30;;
20699;SDS011;10511;51.232;9.420;2023-05-18T03:14:33;1.20;;;1.20;;
20699;SDS011;10511;51.232;9.420;2023-05-18T03:17:00;1.20;;;1.20;;
20699;SDS011;10511;51.232;9.420;2023-05-18T03:19:29;1.20;;;1.20;;
20699;SDS011;10511;51.232;9.420;2023-05-18T03:21:56;1.20;;;1.20;;
20699;SDS011;10511;51.232;9.420;2023-05-18T03:24:25;1.23;;;1.23;;
20699;SDS011;10511;51.232;9.420;2023-05-18T03:26:54;1.10;;;1.10;;
20699;SDS011;10511;51.232;9.420;2023-05-18T03:29:21;1.10;;;1.10;;
20699;SDS011;10511;51.232;9.420;2023-05-18T03:31:48;1.20;;;1.20;;
20699;SDS011;10511;51.232;9.420;2023-05-18T03:34:15;1.10;;;1.10;;
20699;SDS011;10511;51.232;9.420;2023-05-18T03:36:42;1.20;;;1.20;;
20699;SDS011;10511;51.232;9.420;2023-05-18T03:39:11;1.20;;;1.20;;
20699;SDS011;10511;51.232;9.420;2023-05-18T03:41:39;1.20;;;1.20;;
20699;SDS011;10511;51.232;9.420;2023-05-18T03:44:06;1.20;;;1.20;;
20699;SDS011;10511;51.232;9.420;2023-05-18T03:46:33;1.10;;;1.10;;
20699;SDS011;10511;51.232;9.420;2023-05-18T03:49:00;1.20;;;1.20;;
20699;SDS011;10511;51.232;9.420;2023-05-18T03:51:28;1.20;;;1.20;;
20699;SDS011;10511;51.232;9.420;2023-05-18T03:53:55;1.20;;;1.20;;
20699;SDS011;10511;51.232;9.420;2023-05-18T03:56:22;1.20;;;1.20;;
20699;SDS011;10511;51.232;9.420;2023-05-18T03:58:51;1.20;;;1.20;;
20699;SDS011;10511;51.232;9.420;2023-05-18T04:01:18;1.30;;;1.30;;
20699;SDS011;10511;51.232;9.420;2023-05-18T04:03:47;1.17;;;1.17;;
20699;SDS011;10511;51.232;9.420;2023-05-18T04:06:14;1.10;;;1.10;;
20699;SDS011;10511;51.232;9.420;2023-05-18T04:08:42;1.17;;;1.17;;
20699;SDS011;10511;51.232;9.420;2023-05-18T04:11:10;1.10;;;1.10;;
20699;SDS011;10511;51.232;9.420;2023-05-18T04:13:37;1.10;;;1.10;;
20699;SDS011;10511;51.232;9.420;2023-05-18T04:16:05;1.20;;;1.20;;
20699;SDS011;10511;51.232;9.420;2023-05-18T04:18:34;1.20;;;1.20;;
20699;SDS011;10511;51.232;9.420;2023-05-18T04:21:01;1.10;;;1.10;;
20699;SDS011;10511;51.232;9.420;2023-05-18T04:23:30;1.20;;;1.20;;
20699;SDS011;10511;51.232;9.420;2023-05-18T04:25:57;1.10;;;1.10;;
20699;SDS011;10511;51.232;9.420;2023-05-18T04:28:24;1.20;;;1.20;;
20699;SDS011;10511;51.232;9.420;2023-05-18T04:30:52;1.30;;;1.30;;
20699;SDS011;10511;51.232;9.420;2023-05-18T04:33:20;1.17;;;1.17;;
20699;SDS011;10511;51.232;9.420;2023-05-18T04:35:48;1.20;;;1.20;;
20699;SDS011;10511;51.232;9.420;2023-05-18T04:38:19;1.20;;;1.20;;
20699;SDS011;10511;51.232;9.420;2023-05-18T04:40:47;1.20;;;1.20;;
20699;SDS011;10511;51.232;9.420;2023-05-18T04:43:14;1.20;;;1.20;;
20699;SDS011;10511;51.232;9.420;2023-05-18T04:45:41;1.20;;;1.20;;
20699;SDS011;10511;51.232;9.420;2023-05-18T04:48:10;1.10;;;1.10;;
20699;SDS011;10511;51.232;9.420;2023-05-18T04:50:39;1.20;;;1.20;;
20699;SDS011;10511;51.232;9.420;2023-05-18T04:53:07;1.20;;;1.20;;
20699;SDS011;10511;51.232;9.420;2023-05-18T04:55:36;1.27;;;1.27;;
20699;SDS011;10511;51.232;9.420;2023-05-18T04:58:03;1.20;;;1.20;;
20699;SDS011;10511;51.232;9.420;2023-05-18T05:00:30;1.20;;;1.20;;
20699;SDS011;10511;51.232;9.420;2023-05-18T05:02:57;1.20;;;1.20;;
20699;SDS011;10511;51.232;9.420;2023-05-18T05:05:24;1.30;;;1.30;;
20699;SDS011;10511;51.232;9.420;2023-05-18T05:07:53;1.10;;;1.10;;
20699;SDS011;10511;51.232;9.420;2023-05-18T05:10:21;1.10;;;1.10;;
20699;SDS011;10511;51.232;9.420;2023-05-18T05:12:48;1.10;;;1.10;;
20699;SDS011;10511;51.232;9.420;2023-05-18T05:15:16;1.10;;;1.10;;
20699;SDS011;10511;51.232;9.420;2023-05-18T05:17:43;1.20;;;1.20;;
20699;SDS011;10511;51.232;9.420;2023-05-18T05:20:11;1.20;;;1.20;;
20699;SDS011;10511;51.232;9.420;2023-05-18T05:22:38;1.20;;;1.20;;
20699;SDS011;10511;51.232;9.420;2023-05-18T05:25:06;1.10;;;1.10;;
20699;SDS011;10511;51.232;9.420;2023-05-18T05:27:34;1.10;;;1.10;;
20699;SDS011;10511;51.232;9.420;2023-05-18T05:30:01;1.00;;;1.00;;
20699;SDS011;10511;51.232;9.420;2023-05-18T05:32:28;1.00;;;1.00;;
20699;SDS011;10511;51.232;9.420;2023-05-18T05:34:55;1.10;;;1.10;;
20699;SDS011;10511;51.232;9.420;2023-05-18T05:37:23;1.20;;;1.20;;
20699;SDS011;10511;51.232;9.420;2023-05-18T05:39:50;1.10;;;1.10;;
20699;SDS011;10511;51.232;9.420;2023-05-18T05:42:18;1.10;;;1.10;;
20699;SDS011;10511;51.232;9.420;2023-05-18T05:44:45;1.10;;;1.10;;
20699;SDS011;10511;51.232;9.420;2023-05-18T05:47:12;1.10;;;1.10;;
20699;SDS011;10511;51.232;9.420;2023-05-18T05:49:39;1.10;;;1.10;;
20699;SDS011;10511;51.232;9.420;2023-05-18T05:52:06;1.10;;;1.10;;
20699;SDS011;10511;51.232;9.420;2023-05-18T05:54:33;1.10;;;1.10;;
20699;SDS011;10511;51.232;9.420;2023-05-18T05:57:00;1.10;;;1.10;;
20699;SDS011;10511;51.232;9.420;2023-05-18T05:59:29;1.03;;;1.03;;
20699;SDS011;10511;51.232;9.420;2023-05-18T06:01:56;1.00;;;1.00;;
20699;SDS011;10511;51.232;9.420;2023-05-18T06:04:23;1.00;;;1.00;;
20699;SDS011;10511;51.232;9.420;2023-05-18T06:06:50;1.10;;;1.10;;
20699;SDS011;10511;51.232;9.420;2023-05-18T06:09:16;1.00;;;1.00;;
20699;SDS011;10511;51.232;9.420;2023-05-18T06:11:43;1.20;;;1.20;;
20699;SDS011;10511;51.232;9.420;2023-05-18T06:14:10;1.20;;;1.20;;
20699;SDS011;10511;51.232;9.420;2023-05-18T06:16:38;1.10;;;1.10;;
20699;SDS011;10511;51.232;9.420;2023-05-18T06:19:05;1.00;;;1.00;;
20699;SDS011;10511;51.232;9.420;2023-05-18T06:21:32;1.00;;;1.00;;
20699;SDS011;10511;51.232;9.420;2023-05-18T06:23:59;1.00;;;1.00;;
20699;SDS011;10511;51.232;9.420;2023-05-18T06:26:28;0.93;;;0.93;;
20699;SDS011;10511;51.232;9.420;2023-05-18T06:28:55;1.00;;;1.00;;
20699;SDS011;10511;51.232;9.420;2023-05-18T06:31:22;1.00;;;1.00;;
20699;SDS011;10511;51.232;9.420;2023-05-18T06:33:50;1.00;;;1.00;;
20699;SDS011;10511;51.232;9.420;2023-05-18T06:36:17;1.00;;;1.00;;
20699;SDS011;10511;51.232;9.420;2023-05-18T06:38:44;1.00;;;1.00;;
20699;SDS011;10511;51.232;9.420;2023-05-18T06:41:11;1.00;;;1.00;;
20699;SDS011;10511;51.232;9.420;2023-05-18T06:43:38;1.00;;;1.00;;
20699;SDS011;10511;51.232;9.420;2023-05-18T06:46:04;1.00;;;1.00;;
20699;SDS011;10511;51.232;9.420;2023-05-18T06:48:32;1.00;;;1.00;;
20699;SDS011;10511;51.232;9.420;2023-05-18T06:51:01;1.00;;;1.00;;
20699;SDS011;10511;51.232;9.420;2023-05-18T06:53:28;1.00;;;1.00;;
20699;SDS011;10511;51.232;9.420;2023-05-18T06:55:56;1.03;;;1.03;;
20699;SDS011;10511;51.232;9.420;2023-05-18T06:58:22;1.00;;;1.00;;
20699;SDS011;10511;51.232;9.420;2023-05-18T07:00:49;1.00;;;1.00;;
20699;SDS011;10511;51.232;9.420;2023-05-18T07:03:18;0.90;;;0.90;;
20699;SDS011;10511;51.232;9.420;2023-05-18T07:05:45;0.90;;;0.90;;
20699;SDS011;10511;51.232;9.420;2023-05-18T07:08:13;0.90;;;0.90;;
20699;SDS011;10511;51.232;9.420;2023-05-18T07:10:40;0.80;;;0.80;;
20699;SDS011;10511;51.232;9.420;2023-05-18T07:13:07;0.90;;;0.90;;
20699;SDS011;10511;51.232;9.420;2023-05-18T07:15:34;1.00;;;1.00;;
20699;SDS011;10511;51.232;9.420;2023-05-18T07:18:01;0.90;;;0.90;;
20699;SDS011;10511;51.232;9.420;2023-05-18T07:20:29;0.90;;;0.90;;
20699;SDS011;10511;51.232;9.420;2023-05-18T07:22:55;0.90;;;0.90;;
20699;SDS011;10511;51.232;9.420;2023-05-18T07:25:24;0.90;;;0.90;;
20699;SDS011;10511;51.232;9.420;2023-05-18T07:27:51;0.90;;;0.90;;
20699;SDS011;10511;51.232;9.420;2023-05-18T07:30:19;0.90;;;0.90;;
20699;SDS011;10511;51.232;9.420;2023-05-18T07:32:46;0.80;;;0.80;;
20699;SDS011;10511;51.232;9.420;2023-05-18T07:35:14;0.80;;;0.80;;
20699;SDS011;10511;51.232;9.420;2023-05-18T07:37:43;0.80;;;0.80;;
20699;SDS011;10511;51.232;9.420;2023-05-18T07:40:10;0.80;;;0.80;;
20699;SDS011;10511;51.232;9.420;2023-05-18T07:42:39;0.80;;;0.80;;
20699;SDS011;10511;51.232;9.420;2023-05-18T07:45:07;0.90;;;0.90;;
20699;SDS011;10511;51.232;9.420;2023-05-18T07:47:34;0.80;;;0.80;;
20699;SDS011;10511;51.232;9.420;2023-05-18T07:50:01;0.80;;;0.80;;
20699;SDS011;10511;51.232;9.420;2023-05-18T07:52:28;0.80;;;0.80;;
20699;SDS011;10511;51.232;9.420;2023-05-18T07:54:55;0.80;;;0.80;;
20699;SDS011;10511;51.232;9.420;2023-05-18T07:57:22;0.80;;;0.80;;
20699;SDS011;10511;51.232;9.420;2023-05-18T07:59:51;0.80;;;0.80;;
20699;SDS011;10511;51.232;9.420;2023-05-18T08:02:18;0.80;;;0.80;;
20699;SDS011;10511;51.232;9.420;2023-05-18T08:04:45;0.80;;;0.80;;
20699;SDS011;10511;51.232;9.420;2023-05-18T08:07:12;0.90;;;0.90;;
20699;SDS011;10511;51.232;9.420;2023-05-18T08:09:39;0.80;;;0.80;;
20699;SDS011;10511;51.232;9.420;2023-05-18T08:12:07;0.80;;;0.80;;
20699;SDS011;10511;51.232;9.420;2023-05-18T08:14:34;0.80;;;0.80;;
20699;SDS011;10511;51.232;9.420;2023-05-18T08:17:03;0.80;;;0.80;;
20699;SDS011;10511;51.232;9.420;2023-05-18T08:19:31;0.87;;;0.87;;
20699;SDS011;10511;51.232;9.420;2023-05-18T08:21:58;0.90;;;0.90;;
20699;SDS011;10511;51.232;9.420;2023-05-18T08:24:25;0.80;;;0.80;;
20699;SDS011;10511;51.232;9.420;2023-05-18T08:26:52;0.80;;;0.80;;
20699;SDS011;10511;51.232;9.420;2023-05-18T08:29:18;0.80;;;0.80;;
20699;SDS011;10511;51.232;9.420;2023-05-18T08:31:45;0.80;;;0.80;;
20699;SDS011;10511;51.232;9.420;2023-05-18T08:34:14;0.80;;;0.80;;
20699;SDS011;10511;51.232;9.420;2023-05-18T08:36:40;0.80;;;0.80;;
20699;SDS011;10511;51.232;9.420;2023-05-18T08:39:09;0.90;;;0.90;;
20699;SDS011;10511;51.232;9.420;2023-05-18T08:41:37;0.80;;;0.80;;
20699;SDS011;10511;51.232;9.420;2023-05-18T08:44:11;0.80;;;0.80;;
20699;SDS011;10511;51.232;9.420;2023-05-18T08:46:41;0.80;;;0.80;;
20699;SDS011;10511;51.232;9.420;2023-05-18T08:49:13;0.80;;;0.80;;
20699;SDS011;10511;51.232;9.420;2023-05-18T08:51:46;0.80;;;0.80;;
20699;SDS011;10511;51.232;9.420;2023-05-18T08:54:14;0.80;;;0.80;;
20699;SDS011;10511;51.232;9.420;2023-05-18T08:56:45;0.80;;;0.80;;
20699;SDS011;10511;51.232;9.420;2023-05-18T08:59:13;0.80;;;0.80;;
20699;SDS011;10511;51.232;9.420;2023-05-18T09:01:43;0.80;;;0.80;;
20699;SDS011;10511;51.232;9.420;2023-05-18T09:04:11;0.80;;;0.80;;
20699;SDS011;10511;51.232;9.420;2023-05-18T09:06:40;0.80;;;0.80;;
20699;SDS011;10511;51.232;9.420;2023-05-18T09:09:08;0.80;;;0.80;;
20699;SDS011;10511;51.232;9.420;2023-05-18T09:11:35;0.70;;;0.70;;
20699;SDS011;10511;51.232;9.420;2023-05-18T09:14:04;0.80;;;0.80;;
20699;SDS011;10511;51.232;9.420;2023-05-18T09:16:31;0.80;;;0.80;;
20699;SDS011;10511;51.232;9.420;2023-05-18T09:18:58;0.80;;;0.80;;
20699;SDS011;10511;51.232;9.420;2023-05-18T09:21:27;0.80;;;0.80;;
20699;SDS011;10511;51.232;9.420;2023-05-18T09:23:56;0.80;;;0.80;;
20699;SDS011;10511;51.232;9.420;2023-05-18T09:26:24;0.90;;;0.90;;
20699;SDS011;10511;51.232;9.420;2023-05-18T09:28:51;0.80;;;0.80;;
20699;SDS011;10511;51.232;9.420;2023-05-18T09:31:19;0.70;;;0.70;;
20699;SDS011;10511;51.232;9.420;2023-05-18T09:33:48;0.80;;;0.80;;
20699;SDS011;10511;51.232;9.420;2023-05-18T09:36:15;0.70;;;0.70;;
20699;SDS011;10511;51.232;9.420;2023-05-18T09:38:44;0.70;;;0.70;;
20699;SDS011;10511;51.232;9.420;2023-05-18T09:41:12;0.70;;;0.70;;
20699;SDS011;10511;51.232;9.420;2023-05-18T09:43:41;0.70;;;0.70;;
20699;SDS011;10511;51.232;9.420;2023-05-18T09:46:09;0.70;;;0.70;;
20699;SDS011;10511;51.232;9.420;2023-05-18T09:48:40;0.70;;;0.70;;
20699;SDS011;10511;51.232;9.420;2023-05-18T09:51:09;0.70;;;0.70;;
20699;SDS011;10511;51.232;9.420;2023-05-18T09:53:38;0.70;;;0.70;;
20699;SDS011;10511;51.232;9.420;2023-05-18T09:56:07;0.70;;;0.70;;
20699;SDS011;10511;51.232;9.420;2023-05-18T09:58:36;0.77;;;0.77;;
20699;SDS011;10511;51.232;9.420;2023-05-18T10:01:04;0.70;;;0.70;;
20699;SDS011;10511;51.232;9.420;2023-05-18T10:03:32;0.80;;;0.80;;
20699;SDS011;10511;51.232;9.420;2023-05-18T10:06:02;0.80;;;0.80;;
20699;SDS011;10511;51.232;9.420;2023-05-18T10:08:29;0.80;;;0.80;;
20699;SDS011;10511;51.232;9.420;2023-05-18T10:10:57;0.80;;;0.80;;
20699;SDS011;10511;51.232;9.420;2023-05-18T10:13:26;0.77;;;0.77;;
20699;SDS011;10511;51.232;9.420;2023-05-18T10:15:56;0.80;;;0.80;;
20699;SDS011;10511;51.232;9.420;2023-05-18T10:18:24;0.77;;;0.77;;
20699;SDS011;10511;51.232;9.420;2023-05-18T10:20:52;0.70;;;0.70;;
20699;SDS011;10511;51.232;9.420;2023-05-18T10:23:20;0.70;;;0.70;;
20699;SDS011;10511;51.232;9.420;2023-05-18T10:25:50;0.70;;;0.70;;
20699;SDS011;10511;51.232;9.420;2023-05-18T10:28:19;0.70;;;0.70;;
20699;SDS011;10511;51.232;9.420;2023-05-18T10:30:51;0.80;;;0.80;;
20699;SDS011;10511;51.232;9.420;2023-05-18T10:33:19;0.80;;;0.80;;
20699;SDS011;10511;51.232;9.420;2023-05-18T10:35:48;0.70;;;0.70;;
20699;SDS011;10511;51.232;9.420;2023-05-18T10:38:18;0.70;;;0.70;;
20699;SDS011;10511;51.232;9.420;2023-05-18T10:40:46;0.70;;;0.70;;
20699;SDS011;10511;51.232;9.420;2023-05-18T10:43:15;0.80;;;0.80;;
20699;SDS011;10511;51.232;9.420;2023-05-18T10:45:45;0.80;;;0.80;;
20699;SDS011;10511;51.232;9.420;2023-05-18T10:48:15;0.80;;;0.80;;
20699;SDS011;10511;51.232;9.420;2023-05-18T10:50:44;0.70;;;0.70;;
20699;SDS011;10511;51.232;9.420;2023-05-18T10:53:13;0.70;;;0.70;;
20699;SDS011;10511;51.232;9.420;2023-05-18T10:55:43;0.70;;;0.70;;
20699;SDS011;10511;51.232;9.420;2023-05-18T10:58:10;0.80;;;0.80;;
20699;SDS011;10511;51.232;9.420;2023-05-18T11:00:40;0.70;;;0.70;;
20699;SDS011;10511;51.232;9.420;2023-05-18T11:03:09;0.80;;;0.80;;
20699;SDS011;10511;51.232;9.420;2023-05-18T11:05:39;0.70;;;0.70;;
20699;SDS011;10511;51.232;9.420;2023-05-18T11:08:07;0.70;;;0.70;;
20699;SDS011;10511;51.232;9.420;2023-05-18T11:10:37;0.73;;;0.73;;
20699;SDS011;10511;51.232;9.420;2023-05-18T11:13:06;0.70;;;0.70;;
20699;SDS011;10511;51.232;9.420;2023-05-18T11:18:40;0.70;;;0.70;;
20699;SDS011;10511;51.232;9.420;2023-05-18T11:21:49;0.70;;;0.70;;
20699;SDS011;10511;51.232;9.420;2023-05-18T11:24:28;0.77;;;0.77;;
20699;SDS011;10511;51.232;9.420;2023-05-18T11:26:56;0.80;;;0.80;;
20699;SDS011;10511;51.232;9.420;2023-05-18T11:29:30;0.80;;;0.80;;
20699;SDS011;10511;51.232;9.420;2023-05-18T11:32:00;0.70;;;0.70;;
20699;SDS011;10511;51.232;9.420;2023-05-18T11:34:34;0.60;;;0.60;;
20699;SDS011;10511;51.232;9.420;2023-05-18T11:37:03;0.70;;;0.70;;
20699;SDS011;10511;51.232;9.420;2023-05-18T11:39:30;0.60;;;0.60;;
20699;SDS011;10511;51.232;9.420;2023-05-18T11:41:58;0.70;;;0.70;;
20699;SDS011;10511;51.232;9.420;2023-05-18T11:44:26;0.70;;;0.70;;
20699;SDS011;10511;51.232;9.420;2023-05-18T11:47:00;0.80;;;0.80;;
20699;SDS011;10511;51.232;9.420;2023-05-18T11:49:29;0.60;;;0.60;;
20699;SDS011;10511;51.232;9.420;2023-05-18T11:54:45;0.70;;;0.70;;
20699;SDS011;10511;51.232;9.420;2023-05-18T11:57:16;0.70;;;0.70;;
20699;SDS011;10511;51.232;9.420;2023-05-18T11:59:45;0.70;;;0.70;;
20699;SDS011;10511;51.232;9.420;2023-05-18T12:02:17;0.60;;;0.60;;
20699;SDS011;10511;51.232;9.420;2023-05-18T12:04:46;0.67;;;0.67;;
20699;SDS011;10511;51.232;9.420;2023-05-18T12:07:15;0.80;;;0.80;;
20699;SDS011;10511;51.232;9.420;2023-05-18T12:09:45;0.80;;;0.80;;
20699;SDS011;10511;51.232;9.420;2023-05-18T12:12:12;0.80;;;0.80;;
20699;SDS011;10511;51.232;9.420;2023-05-18T12:14:41;0.80;;;0.80;;
20699;SDS011;10511;51.232;9.420;2023-05-18T12:17:09;0.70;;;0.70;;
20699;SDS011;10511;51.232;9.420;2023-05-18T12:19:37;0.80;;;0.80;;
20699;SDS011;10511;51.232;9.420;2023-05-18T12:22:07;0.70;;;0.70;;
20699;SDS011;10511;51.232;9.420;2023-05-18T12:24:35;0.80;;;0.80;;
20699;SDS011;10511;51.232;9.420;2023-05-18T12:27:04;0.60;;;0.60;;
20699;SDS011;10511;51.232;9.420;2023-05-18T12:29:31;0.67;;;0.67;;
20699;SDS011;10511;51.232;9.420;2023-05-18T12:32:03;0.80;;;0.80;;
20699;SDS011;10511;51.232;9.420;2023-05-18T12:34:31;0.70;;;0.70;;
20699;SDS011;10511;51.232;9.420;2023-05-18T12:36:58;0.70;;;0.70;;
20699;SDS011;10511;51.232;9.420;2023-05-18T12:39:25;0.77;;;0.77;;
20699;SDS011;10511;51.232;9.420;2023-05-18T12:41:53;0.70;;;0.70;;
20699;SDS011;10511;51.232;9.420;2023-05-18T12:44:34;0.70;;;0.70;;
20699;SDS011;10511;51.232;9.420;2023-05-18T12:47:01;0.70;;;0.70;;
20699;SDS011;10511;51.232;9.420;2023-05-18T12:49:33;0.70;;;0.70;;
20699;SDS011;10511;51.232;9.420;2023-05-18T12:52:06;0.60;;;0.60;;
20699;SDS011;10511;51.232;9.420;2023-05-18T12:54:34;0.70;;;0.70;;
20699;SDS011;10511;51.232;9.420;2023-05-18T12:57:05;0.80;;;0.80;;
20699;SDS011;10511;51.232;9.420;2023-05-18T12:59:34;0.70;;;0.70;;
20699;SDS011;10511;51.232;9.420;2023-05-18T13:02:01;0.70;;;0.70;;
20699;SDS011;10511;51.232;9.420;2023-05-18T13:04:31;0.67;;;0.67;;
20699;SDS011;10511;51.232;9.420;2023-05-18T13:06:59;0.70;;;0.70;;
20699;SDS011;10511;51.232;9.420;2023-05-18T13:09:26;0.70;;;0.70;;
20699;SDS011;10511;51.232;9.420;2023-05-18T13:11:58;0.60;;;0.60;;
20699;SDS011;10511;51.232;9.420;2023-05-18T13:14:27;0.60;;;0.60;;
20699;SDS011;10511;51.232;9.420;2023-05-18T13:16:57;0.70;;;0.70;;
20699;SDS011;10511;51.232;9.420;2023-05-18T13:19:24;0.70;;;0.70;;
20699;SDS011;10511;51.232;9.420;2023-05-18T13:21:55;0.70;;;0.70;;
20699;SDS011;10511;51.232;9.420;2023-05-18T13:24:22;0.70;;;0.70;;
20699;SDS011;10511;51.232;9.420;2023-05-18T13:26:49;0.60;;;0.60;;
20699;SDS011;10511;51.232;9.420;2023-05-18T13:29:16;0.63;;;0.63;;
20699;SDS011;10511;51.232;9.420;2023-05-18T13:31:44;0.70;;;0.70;;
20699;SDS011;10511;51.232;9.420;2023-05-18T13:34:11;0.70;;;0.70;;
20699;SDS011;10511;51.232;9.420;2023-05-18T13:36:38;0.70;;;0.70;;
20699;SDS011;10511;51.232;9.420;2023-05-18T13:39:05;0.60;;;0.60;;
20699;SDS011;10511;51.232;9.420;2023-05-18T13:41:32;0.60;;;0.60;;
20699;SDS011;10511;51.232;9.420;2023-05-18T13:44:00;0.70;;;0.70;;
20699;SDS011;10511;51.232;9.420;2023-05-18T13:46:27;0.63;;;0.63;;
20699;SDS011;10511;51.232;9.420;2023-05-18T13:48:56;0.60;;;0.60;;
20699;SDS011;10511;51.232;9.420;2023-05-18T13:51:23;0.60;;;0.60;;
20699;SDS011;10511;51.232;9.420;2023-05-18T13:53:50;0.60;;;0.60;;
20699;SDS011;10511;51.232;9.420;2023-05-18T13:56:17;0.60;;;0.60;;
20699;SDS011;10511;51.232;9.420;2023-05-18T13:58:44;0.60;;;0.60;;
20699;SDS011;10511;51.232;9.420;2023-05-18T14:01:11;0.60;;;0.60;;
20699;SDS011;10511;51.232;9.420;2023-05-18T14:03:38;0.60;;;0.60;;
20699;SDS011;10511;51.232;9.420;2023-05-18T14:06:07;0.50;;;0.50;;
20699;SDS011;10511;51.232;9.420;2023-05-18T14:08:33;0.60;;;0.60;;
20699;SDS011;10511;51.232;9.420;2023-05-18T14:11:00;0.60;;;0.60;;
20699;SDS011;10511;51.232;9.420;2023-05-18T14:13:27;0.60;;;0.60;;
20699;SDS011;10511;51.232;9.420;2023-05-18T14:15:54;0.70;;;0.70;;
20699;SDS011;10511;51.232;9.420;2023-05-18T14:18:21;0.70;;;0.70;;
20699;SDS011;10511;51.232;9.420;2023-05-18T14:20:48;0.60;;;0.60;;
20699;SDS011;10511;51.232;9.420;2023-05-18T14:23:16;0.60;;;0.60;;
20699;SDS011;10511;51.232;9.420;2023-05-18T14:25:43;0.70;;;0.70;;
20699;SDS011;10511;51.232;9.420;2023-05-18T14:28:10;0.70;;;0.70;;
20699;SDS011;10511;51.232;9.420;2023-05-18T14:30:37;0.60;;;0.60;;
20699;SDS011;10511;51.232;9.420;2023-05-18T14:33:04;0.70;;;0.70;;
20699;SDS011;10511;51.232;9.420;2023-05-18T14:35:31;0.50;;;0.50;;
20699;SDS011;10511;51.232;9.420;2023-05-18T14:37:58;0.70;;;0.70;;
20699;SDS011;10511;51.232;9.420;2023-05-18T14:40:26;0.60;;;0.60;;
20699;SDS011;10511;51.232;9.420;2023-05-18T14:42:53;0.67;;;0.67;;
20699;SDS011;10511;51.232;9.420;2023-05-18T14:45:20;0.60;;;0.60;;
20699;SDS011;10511;51.232;9.420;2023-05-18T14:47:46;0.60;;;0.60;;
20699;SDS011;10511;51.232;9.420;2023-05-18T14:50:13;0.70;;;0.70;;
20699;SDS011;10511;51.232;9.420;2023-05-18T14:52:40;0.60;;;0.60;;
20699;SDS011;10511;51.232;9.420;2023-05-18T14:55:07;0.60;;;0.60;;
20699;SDS011;10511;51.232;9.420;2023-05-18T14:57:36;0.60;;;0.60;;
20699;SDS011;10511;51.232;9.420;2023-05-18T15:00:03;0.60;;;0.60;;
20699;SDS011;10511;51.232;9.420;2023-05-18T15:02:30;0.60;;;0.60;;